sensor_id;sensor_type;location;lat;lon;timestamp;temperature;humidity
3281;DHT22;1652;51.318;6.202;2022-08-03T00:01:27;19.70;91.20
3281;DHT22;1652;51.318;6.202;2022-08-03T00:03:54;19.70;93.20
3281;DHT22;1652;51.318;6.202;2022-08-03T00:06:21;19.60;94.20
3281;DHT22;1652;51.318;6.202;2022-08-03T00:08:48;19.60;95.40
3281;DHT22;1652;51.318;6.202;2022-08-03T00:11:15;19.60;94.60
3281;DHT22;1652;51.318;6.202;2022-08-03T00:13:42;19.60;93.80
3281;DHT22;1652;51.318;6.202;2022-08-03T00:16:09;19.60;92.60
3281;DHT22;1652;51.318;6.202;2022-08-03T00:18:37;19.60;93.70
3281;DHT22;1652;51.318;6.202;2022-08-03T00:21:04;19.60;90.90
3281;DHT22;1652;51.318;6.202;2022-08-03T00:23:31;19.60;91.30
3281;DHT22;1652;51.318;6.202;2022-08-03T00:26:19;19.60;91.50
3281;DHT22;1652;51.318;6.202;2022-08-03T00:28:47;19.60;91.00
3281;DHT22;1652;51.318;6.202;2022-08-03T00:31:14;19.60;88.10
3281;DHT22;1652;51.318;6.202;2022-08-03T00:33:41;19.60;86.90
3281;DHT22;1652;51.318;6.202;2022-08-03T00:36:28;19.50;90.90
3281;DHT22;1652;51.318;6.202;2022-08-03T00:38:55;19.60;90.80
3281;DHT22;1652;51.318;6.202;2022-08-03T00:41:22;19.50;91.40
3281;DHT22;1652;51.318;6.202;2022-08-03T00:43:49;19.50;92.40
3281;DHT22;1652;51.318;6.202;2022-08-03T00:46:16;19.50;94.50
3281;DHT22;1652;51.318;6.202;2022-08-03T00:48:51;19.40;93.90
3281;DHT22;1652;51.318;6.202;2022-08-03T00:51:19;19.30;95.30
3281;DHT22;1652;51.318;6.202;2022-08-03T00:53:47;19.30;97.80
3281;DHT22;1652;51.318;6.202;2022-08-03T00:56:15;19.20;99.90
3281;DHT22;1652;51.318;6.202;2022-08-03T00:58:44;19.20;99.90
3281;DHT22;1652;51.318;6.202;2022-08-03T01:01:11;19.20;99.90
3281;DHT22;1652;51.318;6.202;2022-08-03T01:03:39;19.20;99.80
3281;DHT22;1652;51.318;6.202;2022-08-03T01:06:18;19.20;98.90
3281;DHT22;1652;51.318;6.202;2022-08-03T01:09:00;19.10;98.20
3281;DHT22;1652;51.318;6.202;2022-08-03T01:11:38;19.10;98.10
3281;DHT22;1652;51.318;6.202;2022-08-03T01:14:31;19.10;99.90
3281;DHT22;1652;51.318;6.202;2022-08-03T01:20:07;19.10;99.90
3281;DHT22;1652;51.318;6.202;2022-08-03T01:26:08;19.00;99.90
3281;DHT22;1652;51.318;6.202;2022-08-03T01:29:03;19.00;99.90
3281;DHT22;1652;51.318;6.202;2022-08-03T01:31:59;18.90;99.90
3281;DHT22;1652;51.318;6.202;2022-08-03T01:34:54;18.80;99.90
3281;DHT22;1652;51.318;6.202;2022-08-03T01:37:31;18.80;99.90
3281;DHT22;1652;51.318;6.202;2022-08-03T01:40:05;18.80;99.90
3281;DHT22;1652;51.318;6.202;2022-08-03T01:42:34;18.80;99.90
3281;DHT22;1652;51.318;6.202;2022-08-03T01:45:02;18.70;99.90
3281;DHT22;1652;51.318;6.202;2022-08-03T01:47:31;18.60;99.90
3281;DHT22;1652;51.318;6.202;2022-08-03T01:49:59;18.60;99.90
3281;DHT22;1652;51.318;6.202;2022-08-03T01:52:29;18.50;99.90
3281;DHT22;1652;51.318;6.202;2022-08-03T01:54:58;18.50;99.90
3281;DHT22;1652;51.318;6.202;2022-08-03T01:57:26;18.50;99.90
3281;DHT22;1652;51.318;6.202;2022-08-03T01:59:56;18.50;99.90
3281;DHT22;1652;51.318;6.202;2022-08-03T02:02:25;18.50;99.90
3281;DHT22;1652;51.318;6.202;2022-08-03T02:05:00;18.50;99.90
3281;DHT22;1652;51.318;6.202;2022-08-03T02:07:29;18.40;99.90
3281;DHT22;1652;51.318;6.202;2022-08-03T02:10:00;18.40;99.90
3281;DHT22;1652;51.318;6.202;2022-08-03T02:12:29;18.40;99.90
3281;DHT22;1652;51.318;6.202;2022-08-03T02:14:58;18.40;99.90
3281;DHT22;1652;51.318;6.202;2022-08-03T02:17:27;18.30;99.90
3281;DHT22;1652;51.318;6.202;2022-08-03T02:20:07;18.30;99.90
3281;DHT22;1652;51.318;6.202;2022-08-03T02:22:35;18.30;99.90
3281;DHT22;1652;51.318;6.202;2022-08-03T02:25:06;18.30;99.90
3281;DHT22;1652;51.318;6.202;2022-08-03T02:27:35;18.30;99.90
3281;DHT22;1652;51.318;6.202;2022-08-03T02:30:10;18.20;99.90
3281;DHT22;1652;51.318;6.202;2022-08-03T02:32:40;18.10;99.90
3281;DHT22;1652;51.318;6.202;2022-08-03T02:35:12;18.10;99.90
3281;DHT22;1652;51.318;6.202;2022-08-03T02:37:43;18.10;99.90
3281;DHT22;1652;51.318;6.202;2022-08-03T02:40:18;18.00;99.90
3281;DHT22;1652;51.318;6.202;2022-08-03T02:42:46;18.00;99.90
3281;DHT22;1652;51.318;6.202;2022-08-03T02:45:15;18.10;99.90
3281;DHT22;1652;51.318;6.202;2022-08-03T02:47:44;18.10;99.90
3281;DHT22;1652;51.318;6.202;2022-08-03T02:50:21;18.10;99.90
3281;DHT22;1652;51.318;6.202;2022-08-03T02:52:50;18.10;99.90
3281;DHT22;1652;51.318;6.202;2022-08-03T02:55:20;18.10;99.90
3281;DHT22;1652;51.318;6.202;2022-08-03T02:57:49;18.10;99.90
3281;DHT22;1652;51.318;6.202;2022-08-03T03:00:17;18.00;99.90
3281;DHT22;1652;51.318;6.202;2022-08-03T03:02:59;18.00;99.90
3281;DHT22;1652;51.318;6.202;2022-08-03T03:05:27;18.00;99.90
3281;DHT22;1652;51.318;6.202;2022-08-03T03:08:17;18.00;99.90
3281;DHT22;1652;51.318;6.202;2022-08-03T03:10:54;18.00;99.90
3281;DHT22;1652;51.318;6.202;2022-08-03T03:13:22;18.00;99.90
3281;DHT22;1652;51.318;6.202;2022-08-03T03:15:51;18.00;99.90
3281;DHT22;1652;51.318;6.202;2022-08-03T03:18:20;17.90;99.90
3281;DHT22;1652;51.318;6.202;2022-08-03T03:20:49;17.90;99.90
3281;DHT22;1652;51.318;6.202;2022-08-03T03:23:17;17.90;99.90
3281;DHT22;1652;51.318;6.202;2022-08-03T03:25:45;17.90;99.90
3281;DHT22;1652;51.318;6.202;2022-08-03T03:28:13;17.90;99.90
3281;DHT22;1652;51.318;6.202;2022-08-03T03:30:40;17.90;99.90
3281;DHT22;1652;51.318;6.202;2022-08-03T03:33:08;17.90;99.90
3281;DHT22;1652;51.318;6.202;2022-08-03T03:35:35;17.90;99.90
3281;DHT22;1652;51.318;6.202;2022-08-03T03:38:05;17.90;99.90
3281;DHT22;1652;51.318;6.202;2022-08-03T03:40:34;17.90;99.90
3281;DHT22;1652;51.318;6.202;2022-08-03T03:43:02;17.90;99.90
3281;DHT22;1652;51.318;6.202;2022-08-03T03:45:30;17.80;99.90
3281;DHT22;1652;51.318;6.202;2022-08-03T03:47:59;17.80;99.90
3281;DHT22;1652;51.318;6.202;2022-08-03T03:50:27;17.80;99.90
3281;DHT22;1652;51.318;6.202;2022-08-03T03:52:54;17.70;99.90
3281;DHT22;1652;51.318;6.202;2022-08-03T03:55:21;17.70;99.90
3281;DHT22;1652;51.318;6.202;2022-08-03T03:57:47;17.80;99.90
3281;DHT22;1652;51.318;6.202;2022-08-03T04:00:16;17.80;99.90
3281;DHT22;1652;51.318;6.202;2022-08-03T04:02:44;17.80;99.90
3281;DHT22;1652;51.318;6.202;2022-08-03T04:05:12;17.80;99.90
3281;DHT22;1652;51.318;6.202;2022-08-03T04:08:05;17.90;99.90
3281;DHT22;1652;51.318;6.202;2022-08-03T04:11:21;17.90;99.90
3281;DHT22;1652;51.318;6.202;2022-08-03T04:14:04;17.90;99.90
3281;DHT22;1652;51.318;6.202;2022-08-03T04:16:35;17.80;99.90
3281;DHT22;1652;51.318;6.202;2022-08-03T04:19:13;17.90;99.90
3281;DHT22;1652;51.318;6.202;2022-08-03T04:21:51;17.90;99.90
3281;DHT22;1652;51.318;6.202;2022-08-03T04:24:20;17.90;99.90
3281;DHT22;1652;51.318;6.202;2022-08-03T04:26:52;18.00;99.90
3281;DHT22;1652;51.318;6.202;2022-08-03T04:29:21;18.00;99.90
3281;DHT22;1652;51.318;6.202;2022-08-03T04:31:51;18.00;99.90
3281;DHT22;1652;51.318;6.202;2022-08-03T04:34:19;18.10;99.90
3281;DHT22;1652;51.318;6.202;2022-08-03T04:36:48;18.10;99.90
3281;DHT22;1652;51.318;6.202;2022-08-03T04:39:22;18.20;99.90
3281;DHT22;1652;51.318;6.202;2022-08-03T04:41:53;18.20;99.90
3281;DHT22;1652;51.318;6.202;2022-08-03T04:44:39;18.30;99.90
3281;DHT22;1652;51.318;6.202;2022-08-03T04:47:07;18.40;99.90
3281;DHT22;1652;51.318;6.202;2022-08-03T04:49:37;18.50;99.90
3281;DHT22;1652;51.318;6.202;2022-08-03T04:52:06;18.60;99.90
3281;DHT22;1652;51.318;6.202;2022-08-03T04:54:44;18.70;99.90
3281;DHT22;1652;51.318;6.202;2022-08-03T04:57:16;18.80;99.90
3281;DHT22;1652;51.318;6.202;2022-08-03T04:59:53;19.00;99.90
3281;DHT22;1652;51.318;6.202;2022-08-03T05:02:28;19.10;99.90
3281;DHT22;1652;51.318;6.202;2022-08-03T05:04:56;19.20;97.20
3281;DHT22;1652;51.318;6.202;2022-08-03T05:07:23;19.30;93.50
3281;DHT22;1652;51.318;6.202;2022-08-03T05:09:51;19.40;91.50
3281;DHT22;1652;51.318;6.202;2022-08-03T05:12:28;19.60;87.70
3281;DHT22;1652;51.318;6.202;2022-08-03T05:14:59;19.70;63.10
3281;DHT22;1652;51.318;6.202;2022-08-03T05:17:26;19.90;60.90
3281;DHT22;1652;51.318;6.202;2022-08-03T05:19:54;20.10;31.50
3281;DHT22;1652;51.318;6.202;2022-08-03T05:22:21;20.30;23.80
3281;DHT22;1652;51.318;6.202;2022-08-03T05:24:49;20.60;1.00
3281;DHT22;1652;51.318;6.202;2022-08-03T05:27:15;20.80;1.00
3281;DHT22;1652;51.318;6.202;2022-08-03T05:29:47;21.10;1.00
3281;DHT22;1652;51.318;6.202;2022-08-03T05:32:14;21.30;1.00
3281;DHT22;1652;51.318;6.202;2022-08-03T05:34:42;21.70;1.00
3281;DHT22;1652;51.318;6.202;2022-08-03T05:37:09;22.20;1.00
3281;DHT22;1652;51.318;6.202;2022-08-03T05:39:36;23.30;99.90
3281;DHT22;1652;51.318;6.202;2022-08-03T05:42:03;24.60;1.00
3281;DHT22;1652;51.318;6.202;2022-08-03T05:44:30;25.80;58.90
3281;DHT22;1652;51.318;6.202;2022-08-03T05:46:57;26.90;99.90
3281;DHT22;1652;51.318;6.202;2022-08-03T05:49:25;27.70;25.30
3281;DHT22;1652;51.318;6.202;2022-08-03T05:51:52;28.00;1.00
3281;DHT22;1652;51.318;6.202;2022-08-03T05:54:36;28.50;99.90
3281;DHT22;1652;51.318;6.202;2022-08-03T05:57:26;29.30;9.40
3281;DHT22;1652;51.318;6.202;2022-08-03T05:59:53;30.00;1.00
3281;DHT22;1652;51.318;6.202;2022-08-03T06:02:27;30.60;99.90
3281;DHT22;1652;51.318;6.202;2022-08-03T06:04:54;30.80;99.90
3281;DHT22;1652;51.318;6.202;2022-08-03T06:07:21;31.20;99.90
3281;DHT22;1652;51.318;6.202;2022-08-03T06:09:48;31.80;99.90
3281;DHT22;1652;51.318;6.202;2022-08-03T06:12:35;32.30;99.90
3281;DHT22;1652;51.318;6.202;2022-08-03T06:15:03;32.50;99.90
3281;DHT22;1652;51.318;6.202;2022-08-03T06:17:33;32.80;95.50
3281;DHT22;1652;51.318;6.202;2022-08-03T06:20:04;32.70;83.30
3281;DHT22;1652;51.318;6.202;2022-08-03T06:22:31;32.20;99.90
3281;DHT22;1652;51.318;6.202;2022-08-03T06:24:58;32.00;99.90
3281;DHT22;1652;51.318;6.202;2022-08-03T06:27:32;32.10;99.90
3281;DHT22;1652;51.318;6.202;2022-08-03T06:30:04;31.80;99.90
3281;DHT22;1652;51.318;6.202;2022-08-03T06:32:31;32.40;99.90
3281;DHT22;1652;51.318;6.202;2022-08-03T06:34:59;32.90;98.90
3281;DHT22;1652;51.318;6.202;2022-08-03T06:37:26;33.50;63.00
3281;DHT22;1652;51.318;6.202;2022-08-03T06:39:54;34.30;21.50
3281;DHT22;1652;51.318;6.202;2022-08-03T06:42:21;35.20;1.00
3281;DHT22;1652;51.318;6.202;2022-08-03T06:44:50;35.40;1.00
3281;DHT22;1652;51.318;6.202;2022-08-03T06:47:17;35.90;1.00
3281;DHT22;1652;51.318;6.202;2022-08-03T06:49:44;36.30;1.00
3281;DHT22;1652;51.318;6.202;2022-08-03T06:52:31;36.40;1.00
3281;DHT22;1652;51.318;6.202;2022-08-03T06:55:04;36.60;1.00
3281;DHT22;1652;51.318;6.202;2022-08-03T06:57:34;36.80;1.00
3281;DHT22;1652;51.318;6.202;2022-08-03T07:00:01;37.00;1.00
3281;DHT22;1652;51.318;6.202;2022-08-03T07:02:37;36.70;1.00
3281;DHT22;1652;51.318;6.202;2022-08-03T07:05:05;36.70;1.00
3281;DHT22;1652;51.318;6.202;2022-08-03T07:07:32;36.60;1.00
3281;DHT22;1652;51.318;6.202;2022-08-03T07:09:59;36.50;1.00
3281;DHT22;1652;51.318;6.202;2022-08-03T07:12:28;36.10;1.00
3281;DHT22;1652;51.318;6.202;2022-08-03T07:14:57;35.90;1.00
3281;DHT22;1652;51.318;6.202;2022-08-03T07:17:29;36.70;1.00
3281;DHT22;1652;51.318;6.202;2022-08-03T07:19:56;37.60;1.00
3281;DHT22;1652;51.318;6.202;2022-08-03T07:22:23;37.80;1.00
3281;DHT22;1652;51.318;6.202;2022-08-03T07:24:50;38.00;1.00
3281;DHT22;1652;51.318;6.202;2022-08-03T07:27:17;37.90;1.00
3281;DHT22;1652;51.318;6.202;2022-08-03T07:29:44;38.10;1.00
3281;DHT22;1652;51.318;6.202;2022-08-03T07:32:11;38.20;1.00
3281;DHT22;1652;51.318;6.202;2022-08-03T07:34:38;37.90;1.00
3281;DHT22;1652;51.318;6.202;2022-08-03T07:37:05;37.80;1.00
3281;DHT22;1652;51.318;6.202;2022-08-03T07:39:32;37.70;1.00
3281;DHT22;1652;51.318;6.202;2022-08-03T07:41:59;37.50;1.00
3281;DHT22;1652;51.318;6.202;2022-08-03T07:44:26;37.80;1.00
3281;DHT22;1652;51.318;6.202;2022-08-03T07:46:53;37.90;1.00
3281;DHT22;1652;51.318;6.202;2022-08-03T07:49:22;38.00;1.00
3281;DHT22;1652;51.318;6.202;2022-08-03T07:51:49;37.80;1.00
3281;DHT22;1652;51.318;6.202;2022-08-03T07:54:36;37.70;1.00
3281;DHT22;1652;51.318;6.202;2022-08-03T07:57:03;38.00;1.00
3281;DHT22;1652;51.318;6.202;2022-08-03T07:59:30;38.30;1.00
3281;DHT22;1652;51.318;6.202;2022-08-03T08:02:16;38.50;1.00
3281;DHT22;1652;51.318;6.202;2022-08-03T08:04:44;38.40;1.00
3281;DHT22;1652;51.318;6.202;2022-08-03T08:07:11;38.60;1.00
3281;DHT22;1652;51.318;6.202;2022-08-03T08:09:38;38.70;1.00
3281;DHT22;1652;51.318;6.202;2022-08-03T08:12:05;38.40;1.00
3281;DHT22;1652;51.318;6.202;2022-08-03T08:14:41;38.10;1.00
3281;DHT22;1652;51.318;6.202;2022-08-03T08:17:12;38.20;1.00
3281;DHT22;1652;51.318;6.202;2022-08-03T08:19:39;38.30;1.00
3281;DHT22;1652;51.318;6.202;2022-08-03T08:22:17;38.20;1.00
3281;DHT22;1652;51.318;6.202;2022-08-03T08:24:53;37.80;1.00
3281;DHT22;1652;51.318;6.202;2022-08-03T08:27:20;37.20;1.00
3281;DHT22;1652;51.318;6.202;2022-08-03T08:29:47;37.00;1.00
3281;DHT22;1652;51.318;6.202;2022-08-03T08:32:22;36.60;1.00
3281;DHT22;1652;51.318;6.202;2022-08-03T08:34:49;36.60;1.00
3281;DHT22;1652;51.318;6.202;2022-08-03T08:37:16;36.50;1.00
3281;DHT22;1652;51.318;6.202;2022-08-03T08:39:43;36.40;1.00
3281;DHT22;1652;51.318;6.202;2022-08-03T08:42:10;36.40;1.00
3281;DHT22;1652;51.318;6.202;2022-08-03T08:44:37;36.30;1.00
3281;DHT22;1652;51.318;6.202;2022-08-03T08:47:05;36.20;1.00
3281;DHT22;1652;51.318;6.202;2022-08-03T08:49:35;36.40;1.00
3281;DHT22;1652;51.318;6.202;2022-08-03T08:52:04;36.20;1.00
3281;DHT22;1652;51.318;6.202;2022-08-03T08:54:58;36.00;1.00
3281;DHT22;1652;51.318;6.202;2022-08-03T08:57:37;35.70;1.00
3281;DHT22;1652;51.318;6.202;2022-08-03T09:00:10;35.60;1.00
3281;DHT22;1652;51.318;6.202;2022-08-03T09:02:41;35.50;1.00
3281;DHT22;1652;51.318;6.202;2022-08-03T09:05:17;35.40;1.00
3281;DHT22;1652;51.318;6.202;2022-08-03T09:07:45;35.60;1.00
3281;DHT22;1652;51.318;6.202;2022-08-03T09:10:15;35.80;1.00
3281;DHT22;1652;51.318;6.202;2022-08-03T09:12:48;36.00;1.00
3281;DHT22;1652;51.318;6.202;2022-08-03T09:15:24;35.80;1.00
3281;DHT22;1652;51.318;6.202;2022-08-03T09:17:56;36.00;1.00
3281;DHT22;1652;51.318;6.202;2022-08-03T09:20:24;35.70;1.00
3281;DHT22;1652;51.318;6.202;2022-08-03T09:25:57;35.50;1.00
3281;DHT22;1652;51.318;6.202;2022-08-03T09:28:33;35.40;1.00
3281;DHT22;1652;51.318;6.202;2022-08-03T09:34:01;35.40;1.00
3281;DHT22;1652;51.318;6.202;2022-08-03T09:36:44;35.40;1.00
3281;DHT22;1652;51.318;6.202;2022-08-03T09:39:20;35.70;1.00
3281;DHT22;1652;51.318;6.202;2022-08-03T09:42:11;35.60;1.00
3281;DHT22;1652;51.318;6.202;2022-08-03T09:44:45;35.00;1.00
3281;DHT22;1652;51.318;6.202;2022-08-03T09:47:15;34.20;1.00
3281;DHT22;1652;51.318;6.202;2022-08-03T09:49:58;33.50;1.00
3281;DHT22;1652;51.318;6.202;2022-08-03T09:52:35;33.00;1.00
3281;DHT22;1652;51.318;6.202;2022-08-03T09:55:16;32.60;1.00
3281;DHT22;1652;51.318;6.202;2022-08-03T09:58:06;32.30;1.00
3281;DHT22;1652;51.318;6.202;2022-08-03T10:03:21;31.70;1.00
3281;DHT22;1652;51.318;6.202;2022-08-03T10:05:48;31.50;1.00
3281;DHT22;1652;51.318;6.202;2022-08-03T10:08:16;31.40;1.00
3281;DHT22;1652;51.318;6.202;2022-08-03T10:10:46;31.30;32.80
3281;DHT22;1652;51.318;6.202;2022-08-03T10:13:15;31.40;15.80
3281;DHT22;1652;51.318;6.202;2022-08-03T10:15:42;31.50;60.00
3281;DHT22;1652;51.318;6.202;2022-08-03T10:18:30;31.50;1.00
3281;DHT22;1652;51.318;6.202;2022-08-03T10:21:03;31.30;1.60
3281;DHT22;1652;51.318;6.202;2022-08-03T10:23:34;31.10;1.00
3281;DHT22;1652;51.318;6.202;2022-08-03T10:26:02;31.00;14.80
3281;DHT22;1652;51.318;6.202;2022-08-03T10:28:34;31.00;1.00
3281;DHT22;1652;51.318;6.202;2022-08-03T10:31:07;30.90;1.00
3281;DHT22;1652;51.318;6.202;2022-08-03T10:33:37;30.70;26.00
3281;DHT22;1652;51.318;6.202;2022-08-03T10:36:22;30.60;92.50
3281;DHT22;1652;51.318;6.202;2022-08-03T10:38:50;30.80;76.60
3281;DHT22;1652;51.318;6.202;2022-08-03T10:41:25;30.60;49.70
3281;DHT22;1652;51.318;6.202;2022-08-03T10:44:10;30.70;60.30
3281;DHT22;1652;51.318;6.202;2022-08-03T10:46:39;30.60;47.30
3281;DHT22;1652;51.318;6.202;2022-08-03T10:49:15;30.60;30.20
3281;DHT22;1652;51.318;6.202;2022-08-03T10:51:59;30.60;20.20
3281;DHT22;1652;51.318;6.202;2022-08-03T11:00:20;30.70;17.60
3281;DHT22;1652;51.318;6.202;2022-08-03T11:05:45;31.00;1.00
3281;DHT22;1652;51.318;6.202;2022-08-03T11:10:59;30.90;1.00
3281;DHT22;1652;51.318;6.202;2022-08-03T11:13:28;30.90;1.00
3281;DHT22;1652;51.318;6.202;2022-08-03T11:15:59;30.90;1.00
3281;DHT22;1652;51.318;6.202;2022-08-03T11:18:30;31.10;1.00
3281;DHT22;1652;51.318;6.202;2022-08-03T11:20:59;31.10;1.00
3281;DHT22;1652;51.318;6.202;2022-08-03T11:23:47;30.90;1.00
3281;DHT22;1652;51.318;6.202;2022-08-03T11:26:32;31.00;1.00
3281;DHT22;1652;51.318;6.202;2022-08-03T11:29:28;31.00;1.00
3281;DHT22;1652;51.318;6.202;2022-08-03T11:31:55;31.00;1.00
3281;DHT22;1652;51.318;6.202;2022-08-03T11:34:23;31.00;1.00
3281;DHT22;1652;51.318;6.202;2022-08-03T11:39:48;30.90;1.00
3281;DHT22;1652;51.318;6.202;2022-08-03T11:44:56;31.20;1.00
3281;DHT22;1652;51.318;6.202;2022-08-03T11:47:26;31.00;1.00
3281;DHT22;1652;51.318;6.202;2022-08-03T11:49:56;30.90;1.00
3281;DHT22;1652;51.318;6.202;2022-08-03T11:52:25;31.00;1.00
3281;DHT22;1652;51.318;6.202;2022-08-03T11:54:54;30.90;1.00
3281;DHT22;1652;51.318;6.202;2022-08-03T11:57:29;31.10;1.00
3281;DHT22;1652;51.318;6.202;2022-08-03T12:00:30;31.10;1.00
3281;DHT22;1652;51.318;6.202;2022-08-03T12:03:07;31.30;1.00
3281;DHT22;1652;51.318;6.202;2022-08-03T12:08:05;31.10;1.00
3281;DHT22;1652;51.318;6.202;2022-08-03T12:10:33;31.10;1.00
3281;DHT22;1652;51.318;6.202;2022-08-03T12:13:01;31.00;1.00
3281;DHT22;1652;51.318;6.202;2022-08-03T12:15:56;31.00;1.00
3281;DHT22;1652;51.318;6.202;2022-08-03T12:18:23;30.90;1.00
3281;DHT22;1652;51.318;6.202;2022-08-03T12:20:52;31.00;1.00
3281;DHT22;1652;51.318;6.202;2022-08-03T12:23:19;31.10;1.00
3281;DHT22;1652;51.318;6.202;2022-08-03T12:25:46;31.10;1.00
3281;DHT22;1652;51.318;6.202;2022-08-03T12:28:19;31.00;1.00
3281;DHT22;1652;51.318;6.202;2022-08-03T12:31:04;31.00;1.00
3281;DHT22;1652;51.318;6.202;2022-08-03T12:36:21;31.00;1.00
3281;DHT22;1652;51.318;6.202;2022-08-03T12:38:56;31.00;1.00
3281;DHT22;1652;51.318;6.202;2022-08-03T12:41:34;31.10;1.00
3281;DHT22;1652;51.318;6.202;2022-08-03T12:44:03;31.20;1.00
3281;DHT22;1652;51.318;6.202;2022-08-03T12:46:34;31.20;1.00
3281;DHT22;1652;51.318;6.202;2022-08-03T12:49:13;31.30;1.00
3281;DHT22;1652;51.318;6.202;2022-08-03T12:54:18;31.40;1.00
3281;DHT22;1652;51.318;6.202;2022-08-03T12:57:04;31.60;1.00
3281;DHT22;1652;51.318;6.202;2022-08-03T12:59:39;31.70;1.00
3281;DHT22;1652;51.318;6.202;2022-08-03T13:02:21;31.70;1.00
3281;DHT22;1652;51.318;6.202;2022-08-03T13:04:50;31.90;1.00
3281;DHT22;1652;51.318;6.202;2022-08-03T13:07:18;31.90;1.00
3281;DHT22;1652;51.318;6.202;2022-08-03T13:09:51;31.90;1.00
3281;DHT22;1652;51.318;6.202;2022-08-03T13:12:23;32.00;1.00
3281;DHT22;1652;51.318;6.202;2022-08-03T13:14:53;32.00;1.00
3281;DHT22;1652;51.318;6.202;2022-08-03T13:17:21;32.10;1.00
3281;DHT22;1652;51.318;6.202;2022-08-03T13:19:49;32.10;1.00
3281;DHT22;1652;51.318;6.202;2022-08-03T13:22:19;32.10;1.00
3281;DHT22;1652;51.318;6.202;2022-08-03T13:24:49;32.10;1.00
3281;DHT22;1652;51.318;6.202;2022-08-03T13:27:17;32.10;1.00
3281;DHT22;1652;51.318;6.202;2022-08-03T13:30:05;31.90;1.00
3281;DHT22;1652;51.318;6.202;2022-08-03T13:32:33;31.80;1.00
3281;DHT22;1652;51.318;6.202;2022-08-03T13:35:00;31.70;1.00
3281;DHT22;1652;51.318;6.202;2022-08-03T13:37:29;31.70;1.00
3281;DHT22;1652;51.318;6.202;2022-08-03T13:39:58;31.70;1.00
3281;DHT22;1652;51.318;6.202;2022-08-03T13:42:31;31.70;1.00
3281;DHT22;1652;51.318;6.202;2022-08-03T13:45:00;31.70;1.00
3281;DHT22;1652;51.318;6.202;2022-08-03T13:47:27;31.70;1.00
3281;DHT22;1652;51.318;6.202;2022-08-03T13:49:54;31.80;1.00
3281;DHT22;1652;51.318;6.202;2022-08-03T13:52:29;31.90;1.00
3281;DHT22;1652;51.318;6.202;2022-08-03T13:54:56;31.80;1.00
3281;DHT22;1652;51.318;6.202;2022-08-03T13:57:24;31.70;1.00
3281;DHT22;1652;51.318;6.202;2022-08-03T14:00:11;31.70;1.00
3281;DHT22;1652;51.318;6.202;2022-08-03T14:02:52;31.50;1.00
3281;DHT22;1652;51.318;6.202;2022-08-03T14:05:24;31.50;1.00
3281;DHT22;1652;51.318;6.202;2022-08-03T14:07:50;31.70;1.00
3281;DHT22;1652;51.318;6.202;2022-08-03T14:10:23;31.60;1.00
3281;DHT22;1652;51.318;6.202;2022-08-03T14:12:50;31.50;1.00
3281;DHT22;1652;51.318;6.202;2022-08-03T14:15:17;31.40;1.00
3281;DHT22;1652;51.318;6.202;2022-08-03T14:17:44;31.40;1.00
3281;DHT22;1652;51.318;6.202;2022-08-03T14:20:15;31.30;1.00
3281;DHT22;1652;51.318;6.202;2022-08-03T14:23:02;31.40;1.00
3281;DHT22;1652;51.318;6.202;2022-08-03T14:25:29;31.40;1.00
3281;DHT22;1652;51.318;6.202;2022-08-03T14:28:20;31.40;1.00
3281;DHT22;1652;51.318;6.202;2022-08-03T14:30:50;31.40;1.00
3281;DHT22;1652;51.318;6.202;2022-08-03T14:33:17;31.40;1.00
3281;DHT22;1652;51.318;6.202;2022-08-03T14:35:44;31.50;1.00
3281;DHT22;1652;51.318;6.202;2022-08-03T14:38:11;31.40;1.00
3281;DHT22;1652;51.318;6.202;2022-08-03T14:40:38;31.40;1.00
3281;DHT22;1652;51.318;6.202;2022-08-03T14:43:05;31.60;1.00
3281;DHT22;1652;51.318;6.202;2022-08-03T14:45:32;31.70;1.00
3281;DHT22;1652;51.318;6.202;2022-08-03T14:48:00;31.60;1.00
3281;DHT22;1652;51.318;6.202;2022-08-03T14:50:50;31.60;1.00
3281;DHT22;1652;51.318;6.202;2022-08-03T14:53:19;31.40;1.00
3281;DHT22;1652;51.318;6.202;2022-08-03T14:55:46;31.30;1.00
3281;DHT22;1652;51.318;6.202;2022-08-03T14:58:18;31.30;1.00
3281;DHT22;1652;51.318;6.202;2022-08-03T15:00:48;31.30;1.00
3281;DHT22;1652;51.318;6.202;2022-08-03T15:03:15;31.40;1.00
3281;DHT22;1652;51.318;6.202;2022-08-03T15:05:54;31.40;1.00
3281;DHT22;1652;51.318;6.202;2022-08-03T15:08:26;31.50;1.00
3281;DHT22;1652;51.318;6.202;2022-08-03T15:10:53;31.30;1.00
3281;DHT22;1652;51.318;6.202;2022-08-03T15:13:21;31.30;1.00
3281;DHT22;1652;51.318;6.202;2022-08-03T15:15:48;31.20;1.00
3281;DHT22;1652;51.318;6.202;2022-08-03T15:18:15;31.10;1.00
3281;DHT22;1652;51.318;6.202;2022-08-03T15:20:42;30.90;1.00
3281;DHT22;1652;51.318;6.202;2022-08-03T15:23:13;30.70;1.00
3281;DHT22;1652;51.318;6.202;2022-08-03T15:25:44;30.90;1.00
3281;DHT22;1652;51.318;6.202;2022-08-03T15:28:31;30.90;1.00
3281;DHT22;1652;51.318;6.202;2022-08-03T15:30:59;31.00;1.00
3281;DHT22;1652;51.318;6.202;2022-08-03T15:33:27;31.10;1.00
3281;DHT22;1652;51.318;6.202;2022-08-03T15:35:54;31.20;1.00
3281;DHT22;1652;51.318;6.202;2022-08-03T15:38:22;31.20;1.00
3281;DHT22;1652;51.318;6.202;2022-08-03T15:40:55;31.20;1.00
3281;DHT22;1652;51.318;6.202;2022-08-03T15:43:22;31.00;1.00
3281;DHT22;1652;51.318;6.202;2022-08-03T15:45:50;30.90;1.00
3281;DHT22;1652;51.318;6.202;2022-08-03T15:48:37;30.70;1.00
3281;DHT22;1652;51.318;6.202;2022-08-03T15:51:10;30.60;1.00
3281;DHT22;1652;51.318;6.202;2022-08-03T15:53:38;30.50;1.00
3281;DHT22;1652;51.318;6.202;2022-08-03T15:56:05;30.50;1.00
3281;DHT22;1652;51.318;6.202;2022-08-03T15:58:39;30.50;1.00
3281;DHT22;1652;51.318;6.202;2022-08-03T16:01:26;30.50;1.00
3281;DHT22;1652;51.318;6.202;2022-08-03T16:03:53;30.60;1.00
3281;DHT22;1652;51.318;6.202;2022-08-03T16:06:20;30.60;1.00
3281;DHT22;1652;51.318;6.202;2022-08-03T16:09:01;30.60;1.00
3281;DHT22;1652;51.318;6.202;2022-08-03T16:11:28;30.60;1.00
3281;DHT22;1652;51.318;6.202;2022-08-03T16:13:56;30.60;1.00
3281;DHT22;1652;51.318;6.202;2022-08-03T16:16:42;30.50;1.00
3281;DHT22;1652;51.318;6.202;2022-08-03T16:19:09;30.50;1.00
3281;DHT22;1652;51.318;6.202;2022-08-03T16:21:36;30.50;1.00
3281;DHT22;1652;51.318;6.202;2022-08-03T16:24:14;30.40;1.00
3281;DHT22;1652;51.318;6.202;2022-08-03T16:26:50;30.30;1.00
3281;DHT22;1652;51.318;6.202;2022-08-03T16:29:17;30.30;1.00
3281;DHT22;1652;51.318;6.202;2022-08-03T16:31:50;30.30;1.00
3281;DHT22;1652;51.318;6.202;2022-08-03T16:34:18;30.30;5.40
3281;DHT22;1652;51.318;6.202;2022-08-03T16:36:45;30.30;1.00
3281;DHT22;1652;51.318;6.202;2022-08-03T16:39:12;30.20;1.00
3281;DHT22;1652;51.318;6.202;2022-08-03T16:41:38;30.20;10.10
3281;DHT22;1652;51.318;6.202;2022-08-03T16:44:26;30.20;1.00
3281;DHT22;1652;51.318;6.202;2022-08-03T16:46:54;30.20;1.00
3281;DHT22;1652;51.318;6.202;2022-08-03T16:49:21;30.20;1.00
3281;DHT22;1652;51.318;6.202;2022-08-03T16:52:08;30.20;1.00
3281;DHT22;1652;51.318;6.202;2022-08-03T16:54:38;30.10;2.80
3281;DHT22;1652;51.318;6.202;2022-08-03T16:57:06;30.10;1.00
3281;DHT22;1652;51.318;6.202;2022-08-03T16:59:34;30.20;1.00
3281;DHT22;1652;51.318;6.202;2022-08-03T17:02:03;30.00;1.40
3281;DHT22;1652;51.318;6.202;2022-08-03T17:04:36;30.00;1.00
3281;DHT22;1652;51.318;6.202;2022-08-03T17:07:06;30.00;11.70
3281;DHT22;1652;51.318;6.202;2022-08-03T17:09:34;29.90;13.80
3281;DHT22;1652;51.318;6.202;2022-08-03T17:12:04;29.80;39.70
3281;DHT22;1652;51.318;6.202;2022-08-03T17:14:32;29.80;29.50
3281;DHT22;1652;51.318;6.202;2022-08-03T17:17:03;29.70;35.30
3281;DHT22;1652;51.318;6.202;2022-08-03T17:19:34;29.60;19.00
3281;DHT22;1652;51.318;6.202;2022-08-03T17:22:11;29.60;28.30